createdAt,value
2022-08-26T00:01:36.712Z,73.10
2022-08-26T00:04:03.401Z,73.97
2022-08-26T00:06:33.338Z,74.36
2022-08-26T00:09:00.341Z,74.88
2022-08-26T00:11:27.369Z,75.90
2022-08-26T00:13:55.658Z,73.86
2022-08-26T00:16:24.718Z,75.46
2022-08-26T00:18:51.557Z,74.37
2022-08-26T00:21:18.554Z,74.20
2022-08-26T00:23:46.234Z,74.97
2022-08-26T00:26:14.322Z,74.23
2022-08-26T00:28:41.434Z,74.65
2022-08-26T00:31:10.781Z,75.81
2022-08-26T00:33:38.536Z,75.96
2022-08-26T00:36:05.563Z,74.99
2022-08-26T00:38:32.544Z,75.73
2022-08-26T00:40:59.233Z,75.66
2022-08-26T00:43:26.795Z,76.20
2022-08-26T00:46:23.469Z,76.24
2022-08-26T00:48:53.885Z,76.87
2022-08-26T00:51:24.894Z,76.19
2022-08-26T00:54:04.285Z,76.67
2022-08-26T00:56:38.193Z,76.84
2022-08-26T00:59:11.800Z,76.71
2022-08-26T01:01:41.128Z,76.61
2022-08-26T01:04:09.200Z,76.37
2022-08-26T01:06:35.884Z,76.17
2022-08-26T01:09:02.814Z,76.56
2022-08-26T01:11:29.586Z,76.44
2022-08-26T01:14:00.515Z,76.63
2022-08-26T01:16:29.945Z,76.63
2022-08-26T01:18:59.683Z,76.56
2022-08-26T01:21:41.344Z,77.33
2022-08-26T01:24:10.285Z,76.75
2022-08-26T01:26:41.327Z,77.12
2022-08-26T01:29:12.931Z,76.00
2022-08-26T01:31:47.225Z,75.76
2022-08-26T01:34:17.268Z,77.35
2022-08-26T01:36:50.601Z,77.76
2022-08-26T01:39:18.920Z,76.95
2022-08-26T01:41:47.575Z,77.80
2022-08-26T01:44:24.246Z,77.11
2022-08-26T01:46:52.899Z,77.05
2022-08-26T01:49:22.307Z,76.70
2022-08-26T01:51:51.594Z,76.31
2022-08-26T01:54:20.591Z,77.87
2022-08-26T01:56:50.926Z,77.88
2022-08-26T01:59:20.355Z,77.72
2022-08-26T02:01:48.578Z,77.87
2022-08-26T02:04:23.795Z,77.40
2022-08-26T02:06:51.702Z,77.85
2022-08-26T02:09:19.774Z,78.41
2022-08-26T02:11:47.670Z,77.50
2022-08-26T02:14:21.521Z,77.60
2022-08-26T02:16:52.069Z,77.98
2022-08-26T02:19:26.273Z,77.50
2022-08-26T02:21:53.826Z,76.56
2022-08-26T02:24:24.646Z,77.90
2022-08-26T02:26:55.086Z,77.95
2022-08-26T02:29:25.131Z,76.51
2022-08-26T02:31:52.965Z,77.16
2022-08-26T02:34:23.559Z,77.67
2022-08-26T02:36:57.073Z,77.91
2022-08-26T02:39:24.477Z,78.67
2022-08-26T02:41:51.313Z,78.58
2022-08-26T02:44:18.009Z,78.11
2022-08-26T02:46:47.102Z,77.61
2022-08-26T02:49:14.975Z,78.51
2022-08-26T02:51:43.108Z,78.88
2022-08-26T02:54:09.830Z,79.35
2022-08-26T02:56:36.779Z,77.25
2022-08-26T02:59:03.473Z,78.98
2022-08-26T03:01:33.116Z,79.02
2022-08-26T03:04:01.978Z,79.28
2022-08-26T03:06:28.896Z,78.60
2022-08-26T03:08:55.878Z,78.33
2022-08-26T03:11:23.643Z,78.38
2022-08-26T03:13:51.766Z,79.50
2022-08-26T03:16:18.975Z,77.82
2022-08-26T03:18:51.963Z,79.03
2022-08-26T03:21:19.827Z,78.99
2022-08-26T03:23:46.584Z,78.64
2022-08-26T03:26:14.968Z,79.01
2022-08-26T03:29:01.442Z,79.60
2022-08-26T03:31:29.715Z,78.78
2022-08-26T03:33:59.801Z,79.38
2022-08-26T03:36:27.393Z,79.06
2022-08-26T03:38:54.448Z,80.04
2022-08-26T03:41:21.410Z,77.90
2022-08-26T03:43:50.775Z,79.59
2022-08-26T03:46:18.804Z,80.03
2022-08-26T03:48:45.837Z,78.24
2022-08-26T03:51:18.170Z,78.97
2022-08-26T03:53:46.928Z,78.50
2022-08-26T03:56:15.135Z,77.96
2022-08-26T03:58:42.855Z,77.90
2022-08-26T04:01:09.806Z,78.06
2022-08-26T04:03:54.784Z,76.96
2022-08-26T04:06:21.548Z,78.00
2022-08-26T04:08:48.394Z,78.35
2022-08-26T04:11:20.278Z,75.21
2022-08-26T04:13:48.629Z,76.23
2022-08-26T04:16:17.613Z,77.75
2022-08-26T04:18:46.958Z,75.79
2022-08-26T04:21:13.668Z,77.47
2022-08-26T04:23:47.068Z,77.65
2022-08-26T04:26:15.786Z,78.55
2022-08-26T04:28:42.795Z,78.35
2022-08-26T04:31:17.516Z,77.42
2022-08-26T04:33:47.626Z,77.72
2022-08-26T04:36:16.735Z,78.13
2022-08-26T04:38:44.558Z,77.91
2022-08-26T04:41:15.552Z,78.40
2022-08-26T04:43:44.404Z,78.71
2022-08-26T04:46:13.066Z,78.15
2022-08-26T04:48:41.148Z,78.38
2022-08-26T04:51:09.867Z,78.54
2022-08-26T04:53:37.408Z,78.79
2022-08-26T04:56:04.160Z,79.45
2022-08-26T04:58:31.106Z,77.50
2022-08-26T05:00:58.531Z,78.68
2022-08-26T05:03:27.442Z,79.17
2022-08-26T05:05:58.347Z,77.25
2022-08-26T05:08:25.475Z,78.16
2022-08-26T05:10:56.272Z,77.42
2022-08-26T05:13:26.277Z,76.96
2022-08-26T05:15:53.273Z,74.78
2022-08-26T05:18:23.679Z,74.34
2022-08-26T05:20:54.526Z,75.16
2022-08-26T05:23:22.955Z,74.58
2022-08-26T05:25:54.627Z,76.01
2022-08-26T05:28:23.784Z,75.86
2022-08-26T05:30:51.253Z,73.78
2022-08-26T05:33:19.604Z,74.47
2022-08-26T05:35:47.193Z,75.81
2022-08-26T05:38:19.299Z,73.84
2022-08-26T05:40:49.512Z,74.02
2022-08-26T05:43:21.282Z,74.91
2022-08-26T05:45:50.575Z,72.86
2022-08-26T05:48:22.814Z,72.53
2022-08-26T05:50:52.983Z,73.59
2022-08-26T05:53:21.460Z,74.79
2022-08-26T05:55:51.488Z,72.97
2022-08-26T05:58:21.248Z,73.95
2022-08-26T06:01:03.846Z,74.93
2022-08-26T06:03:33.999Z,74.40
2022-08-26T06:06:14.149Z,74.67
2022-08-26T06:08:41.202Z,74.77
2022-08-26T06:11:18.333Z,75.54
2022-08-26T06:13:46.531Z,75.57
2022-08-26T06:16:15.762Z,74.29
2022-08-26T06:18:45.127Z,75.25
2022-08-26T06:21:11.878Z,74.39
2022-08-26T06:23:57.166Z,74.19
2022-08-26T06:26:26.150Z,75.84
2022-08-26T06:28:53.174Z,74.01
2022-08-26T06:31:19.853Z,77.84
2022-08-26T06:33:46.681Z,75.23
2022-08-26T06:36:19.517Z,74.82
2022-08-26T06:38:50.431Z,76.36
2022-08-26T06:41:18.115Z,74.77
2022-08-26T06:43:44.775Z,76.48
2022-08-26T06:46:13.193Z,74.97
2022-08-26T06:48:40.400Z,74.38
2022-08-26T06:51:17.160Z,74.43
2022-08-26T06:53:46.938Z,75.65
2022-08-26T06:56:17.847Z,74.39
2022-08-26T06:58:45.811Z,75.47
2022-08-26T07:01:22.617Z,75.03
2022-08-26T07:03:54.309Z,76.65
2022-08-26T07:06:25.340Z,75.08
2022-08-26T07:08:54.003Z,76.22
2022-08-26T07:11:21.164Z,75.93
2022-08-26T07:13:47.718Z,72.93
2022-08-26T07:16:17.516Z,71.52
2022-08-26T07:18:45.450Z,70.63
2022-08-26T07:21:15.266Z,71.76
2022-08-26T07:23:42.237Z,69.87
2022-08-26T07:26:13.022Z,71.24
2022-08-26T07:28:39.609Z,72.47
2022-08-26T07:31:09.645Z,70.11
2022-08-26T07:33:38.740Z,72.53
2022-08-26T07:36:08.049Z,68.75
2022-08-26T07:38:36.638Z,70.49
2022-08-26T07:41:03.591Z,70.28
2022-08-26T07:43:31.433Z,67.71
2022-08-26T07:45:58.202Z,68.55
2022-08-26T07:48:25.117Z,67.51
2022-08-26T07:50:53.755Z,67.77
2022-08-26T07:53:22.049Z,68.24
2022-08-26T07:55:50.990Z,68.42
2022-08-26T07:58:17.905Z,70.03
2022-08-26T08:00:45.193Z,65.11
2022-08-26T08:03:12.336Z,66.79
2022-08-26T08:05:41.424Z,66.49
2022-08-26T08:08:26.838Z,65.44
2022-08-26T08:10:55.759Z,64.35
2022-08-26T08:13:23.574Z,67.61
2022-08-26T08:15:50.732Z,65.82
2022-08-26T08:18:18.173Z,65.00
2022-08-26T08:21:04.754Z,68.39
2022-08-26T08:23:32.918Z,61.69
2022-08-26T08:26:05.041Z,64.61
2022-08-26T08:28:32.281Z,65.20
2022-08-26T08:30:59.627Z,60.48
2022-08-26T08:33:26.607Z,56.88
2022-08-26T08:35:53.222Z,56.08
2022-08-26T08:38:19.806Z,53.16
2022-08-26T08:40:46.588Z,55.58
2022-08-26T08:43:17.466Z,55.21
2022-08-26T08:45:57.684Z,50.86
2022-08-26T08:48:31.918Z,54.92
2022-08-26T08:51:13.992Z,56.54
2022-08-26T08:53:48.066Z,56.83
2022-08-26T08:56:23.914Z,52.60
2022-08-26T08:59:29.325Z,53.29
2022-08-26T09:02:30.074Z,54.20
2022-08-26T09:05:22.235Z,56.04
2022-08-26T09:08:12.632Z,52.52
2022-08-26T09:10:52.175Z,52.29
2022-08-26T09:13:25.351Z,50.03
2022-08-26T09:16:10.078Z,47.18
2022-08-26T09:18:55.388Z,43.90
2022-08-26T09:21:25.185Z,50.33
2022-08-26T09:23:55.726Z,44.32
2022-08-26T09:26:30.640Z,48.91
2022-08-26T09:29:03.755Z,46.67
2022-08-26T09:31:34.200Z,45.46
2022-08-26T09:34:23.818Z,46.06
2022-08-26T09:37:00.663Z,44.91
2022-08-26T09:39:39.627Z,43.14
2022-08-26T09:42:22.564Z,47.10
2022-08-26T09:44:59.603Z,43.31
2022-08-26T09:47:46.421Z,47.19
2022-08-26T09:50:29.139Z,45.05
2022-08-26T09:53:09.939Z,44.57
2022-08-26T09:55:42.202Z,44.09
2022-08-26T09:58:13.740Z,44.79
2022-08-26T10:00:52.716Z,43.80
2022-08-26T10:03:37.774Z,43.81
2022-08-26T10:06:21.042Z,43.30
2022-08-26T10:08:52.485Z,42.59
2022-08-26T10:11:45.209Z,43.63
2022-08-26T10:14:29.629Z,39.76
2022-08-26T10:17:08.755Z,38.47
2022-08-26T10:19:56.998Z,37.96
2022-08-26T10:22:59.200Z,39.34
2022-08-26T10:25:33.349Z,36.11
2022-08-26T10:28:08.088Z,37.12
2022-08-26T10:30:44.936Z,37.43
2022-08-26T10:33:15.430Z,35.41
2022-08-26T10:35:56.808Z,38.51
2022-08-26T10:38:34.634Z,40.42
2022-08-26T10:41:09.980Z,36.57
2022-08-26T10:43:43.034Z,38.75
2022-08-26T10:46:17.084Z,37.98
2022-08-26T10:48:53.697Z,38.02
2022-08-26T10:51:26.812Z,37.47
2022-08-26T10:54:01.045Z,34.22
2022-08-26T10:56:44.953Z,38.65
2022-08-26T10:59:34.302Z,33.24
2022-08-26T11:02:46.966Z,32.93
2022-08-26T11:05:19.560Z,32.31
2022-08-26T11:07:51.409Z,35.08
2022-08-26T11:10:21.561Z,36.72
2022-08-26T11:13:00.192Z,36.40
2022-08-26T11:15:28.169Z,34.62
2022-08-26T11:18:03.850Z,34.22
2022-08-26T11:20:33.304Z,33.02
2022-08-26T11:23:27.207Z,32.79
2022-08-26T11:25:56.953Z,38.86
2022-08-26T11:28:44.211Z,35.00
2022-08-26T11:31:26.235Z,34.91
2022-08-26T11:33:59.857Z,30.98
2022-08-26T11:37:03.493Z,35.82
2022-08-26T11:39:33.328Z,35.08
2022-08-26T11:42:25.290Z,30.86
2022-08-26T11:44:57.914Z,31.27
2022-08-26T11:47:31.103Z,33.92
2022-08-26T11:50:13.725Z,33.70
2022-08-26T11:52:40.403Z,31.11
2022-08-26T11:55:14.771Z,32.22
2022-08-26T11:57:55.916Z,33.89
2022-08-26T12:00:33.427Z,33.06
2022-08-26T12:03:05.646Z,31.10
2022-08-26T12:05:36.344Z,34.13
2022-08-26T12:08:11.308Z,34.58
2022-08-26T12:10:38.798Z,33.65
2022-08-26T12:13:07.305Z,33.53
2022-08-26T12:15:35.609Z,33.03
2022-08-26T12:18:28.938Z,34.34
2022-08-26T12:20:59.548Z,31.55
2022-08-26T12:23:35.192Z,35.61
2022-08-26T12:26:28.248Z,34.68
2022-08-26T12:29:19.866Z,33.25
2022-08-26T12:31:48.041Z,33.20
2022-08-26T12:34:19.724Z,32.78
2022-08-26T12:36:53.799Z,32.77
2022-08-26T12:39:36.392Z,34.57
2022-08-26T12:42:26.790Z,33.17
2022-08-26T12:45:06.652Z,32.19
2022-08-26T12:47:43.541Z,34.34
2022-08-26T12:50:23.566Z,33.14
2022-08-26T12:52:59.261Z,31.22
2022-08-26T12:55:42.628Z,30.86
2022-08-26T12:58:32.415Z,32.65
2022-08-26T13:01:22.277Z,35.24
2022-08-26T13:03:49.791Z,32.80
2022-08-26T13:06:31.644Z,32.85
2022-08-26T13:09:05.484Z,32.46
2022-08-26T13:11:55.371Z,32.91
2022-08-26T13:14:24.663Z,33.48
2022-08-26T13:16:52.977Z,32.65
2022-08-26T13:19:22.622Z,35.15
2022-08-26T13:21:55.422Z,31.87
2022-08-26T13:24:56.932Z,33.73
2022-08-26T13:27:26.295Z,36.21
2022-08-26T13:29:54.409Z,33.28
2022-08-26T13:32:23.774Z,30.18
2022-08-26T13:34:54.823Z,29.34
2022-08-26T13:37:22.404Z,29.67
2022-08-26T13:40:01.602Z,30.42
2022-08-26T13:42:28.317Z,31.39
2022-08-26T13:44:58.127Z,33.48
2022-08-26T13:47:26.040Z,34.41
2022-08-26T13:49:54.983Z,31.76
2022-08-26T13:52:25.500Z,31.98
2022-08-26T13:55:00.241Z,30.83
2022-08-26T13:57:28.441Z,30.66
2022-08-26T13:59:57.108Z,30.43
2022-08-26T14:02:23.763Z,31.58
2022-08-26T14:04:50.381Z,32.70
2022-08-26T14:07:17.449Z,29.98
2022-08-26T14:09:44.046Z,32.62
2022-08-26T14:12:10.677Z,34.43
2022-08-26T14:14:37.283Z,31.66
2022-08-26T14:17:03.960Z,33.58
2022-08-26T14:19:31.496Z,30.97
2022-08-26T14:22:00.804Z,31.06
2022-08-26T14:24:28.872Z,34.03
2022-08-26T14:26:55.514Z,31.55
2022-08-26T14:29:22.108Z,31.96
2022-08-26T14:31:48.710Z,31.53
2022-08-26T14:34:15.717Z,33.34
2022-08-26T14:36:42.457Z,32.50
2022-08-26T14:39:11.483Z,34.14
2022-08-26T14:41:53.968Z,35.25
2022-08-26T14:44:24.444Z,32.67
2022-08-26T14:46:52.852Z,32.40
2022-08-26T14:49:21.223Z,33.46
2022-08-26T14:51:48.086Z,34.61
2022-08-26T14:54:16.642Z,36.53
2022-08-26T14:56:46.233Z,32.52
2022-08-26T14:59:15.740Z,33.77
2022-08-26T15:01:42.468Z,32.07
2022-08-26T15:04:09.133Z,34.27
2022-08-26T15:06:36.420Z,33.21
2022-08-26T15:09:03.969Z,32.91
2022-08-26T15:11:30.641Z,32.94
2022-08-26T15:13:57.490Z,33.36
2022-08-26T15:16:24.389Z,33.83
2022-08-26T15:18:51.715Z,33.75
2022-08-26T15:21:19.992Z,34.64
2022-08-26T15:23:48.438Z,35.46
2022-08-26T15:26:16.497Z,35.82
2022-08-26T15:28:43.473Z,34.88
2022-08-26T15:31:10.108Z,37.29
2022-08-26T15:33:37.010Z,36.51
2022-08-26T15:36:05.848Z,36.34
2022-08-26T15:38:36.612Z,36.81
2022-08-26T15:41:05.999Z,35.78
2022-08-26T15:43:32.970Z,34.14
2022-08-26T15:45:59.727Z,35.61
2022-08-26T15:48:27.301Z,35.88
2022-08-26T15:51:00.559Z,35.55
2022-08-26T15:53:31.273Z,35.43
2022-08-26T15:55:59.617Z,34.74
2022-08-26T15:58:28.246Z,37.70
2022-08-26T16:00:56.251Z,36.76
2022-08-26T16:03:22.971Z,36.74
2022-08-26T16:05:50.206Z,37.94
2022-08-26T16:08:17.448Z,37.19
2022-08-26T16:10:50.413Z,36.61
2022-08-26T16:13:20.087Z,37.82
2022-08-26T16:15:47.915Z,39.33
2022-08-26T16:18:15.641Z,36.72
2022-08-26T16:20:55.262Z,38.28
2022-08-26T16:23:40.889Z,37.84
2022-08-26T16:26:17.057Z,37.21
2022-08-26T16:28:43.808Z,37.86
2022-08-26T16:31:11.264Z,38.05
2022-08-26T16:33:38.006Z,36.77
2022-08-26T16:36:06.476Z,39.38
2022-08-26T16:38:33.646Z,38.12
2022-08-26T16:41:01.199Z,38.05
2022-08-26T16:43:28.748Z,38.10
2022-08-26T16:45:56.298Z,39.83
2022-08-26T16:48:23.784Z,39.69
2022-08-26T16:50:51.846Z,37.82
2022-08-26T16:53:19.122Z,38.10
2022-08-26T16:55:47.636Z,37.49
2022-08-26T16:58:14.747Z,38.50
2022-08-26T17:00:41.264Z,38.50
2022-08-26T17:03:08.275Z,37.93
2022-08-26T17:05:36.316Z,38.49
2022-08-26T17:08:04.052Z,39.11
2022-08-26T17:10:31.217Z,39.95
2022-08-26T17:12:58.431Z,39.08
2022-08-26T17:15:25.545Z,39.36
2022-08-26T17:17:53.591Z,40.96
2022-08-26T17:20:22.407Z,40.34
2022-08-26T17:22:51.481Z,41.37
2022-08-26T17:25:29.595Z,40.72
2022-08-26T17:30:28.437Z,41.76
2022-08-26T17:32:57.891Z,40.97
2022-08-26T17:35:24.553Z,40.95
2022-08-26T17:37:51.362Z,41.10
2022-08-26T17:40:25.313Z,41.45
2022-08-26T17:42:52.006Z,40.91
2022-08-26T17:47:50.936Z,41.36
2022-08-26T17:50:18.432Z,40.18
2022-08-26T17:52:45.945Z,40.07
2022-08-26T17:55:15.238Z,40.11
2022-08-26T17:57:43.982Z,41.38
2022-08-26T18:00:23.027Z,41.26
2022-08-26T18:02:49.670Z,41.66
2022-08-26T18:05:17.555Z,42.12
2022-08-26T18:07:44.927Z,42.06
2022-08-26T18:10:13.840Z,41.27
2022-08-26T18:12:41.776Z,41.71
2022-08-26T18:15:10.453Z,42.27
2022-08-26T18:17:39.297Z,41.61
2022-08-26T18:20:16.147Z,41.42
2022-08-26T18:22:43.600Z,41.37
2022-08-26T18:25:12.435Z,41.56
2022-08-26T18:27:39.577Z,40.95
2022-08-26T18:30:07.548Z,41.63
2022-08-26T18:32:34.299Z,41.61
2022-08-26T18:35:01.129Z,41.83
2022-08-26T18:37:30.913Z,42.13
2022-08-26T18:39:59.561Z,41.79
2022-08-26T18:42:27.172Z,41.42
2022-08-26T18:44:54.271Z,45.59
2022-08-26T18:47:20.833Z,52.48
2022-08-26T18:49:48.648Z,52.63
2022-08-26T18:52:15.488Z,54.05
2022-08-26T18:54:42.512Z,51.61
2022-08-26T18:57:09.943Z,50.53
2022-08-26T18:59:36.645Z,51.21
2022-08-26T19:02:03.446Z,50.94
2022-08-26T19:04:30.180Z,51.44
2022-08-26T19:06:56.861Z,53.80
2022-08-26T19:09:26.227Z,54.13
2022-08-26T19:11:53.069Z,56.01
2022-08-26T19:14:19.939Z,57.92
2022-08-26T19:16:48.885Z,59.98
2022-08-26T19:19:15.882Z,57.77
2022-08-26T19:21:42.769Z,56.68
2022-08-26T19:24:15.595Z,54.08
2022-08-26T19:26:47.284Z,58.57
2022-08-26T19:29:15.271Z,59.99
2022-08-26T19:31:44.043Z,58.74
2022-08-26T19:34:11.905Z,58.73
2022-08-26T19:36:39.362Z,60.16
2022-08-26T19:39:11.898Z,60.96
2022-08-26T19:41:39.074Z,60.67
2022-08-26T19:44:38.122Z,61.30
2022-08-26T19:47:07.222Z,58.58
2022-08-26T19:49:34.842Z,59.99
2022-08-26T19:52:03.182Z,63.07
2022-08-26T19:54:30.339Z,65.91
2022-08-26T19:56:57.488Z,65.80
2022-08-26T19:59:24.423Z,65.14
2022-08-26T20:01:52.932Z,66.19
2022-08-26T20:04:28.901Z,67.23
2022-08-26T20:06:58.717Z,67.40
2022-08-26T20:09:29.143Z,67.82
2022-08-26T20:11:56.968Z,68.88
2022-08-26T20:14:29.549Z,71.32
2022-08-26T20:16:56.353Z,72.18
2022-08-26T20:19:41.554Z,72.46
2022-08-26T20:22:08.693Z,72.53
2022-08-26T20:24:35.613Z,69.36
2022-08-26T20:27:07.293Z,69.44
2022-08-26T20:29:35.159Z,68.89
2022-08-26T20:32:02.705Z,69.73
2022-08-26T20:34:30.151Z,69.77
2022-08-26T20:36:56.857Z,69.47
2022-08-26T20:39:23.618Z,69.47
2022-08-26T20:41:50.298Z,69.11
2022-08-26T20:44:17.662Z,70.67
2022-08-26T20:46:44.662Z,69.22
2022-08-26T20:49:13.246Z,68.29
2022-08-26T20:51:39.947Z,71.37
2022-08-26T20:54:07.471Z,72.43
2022-08-26T20:56:34.521Z,72.84
2022-08-26T20:59:01.743Z,73.42
2022-08-26T21:01:30.782Z,73.94
2022-08-26T21:03:57.554Z,72.72
2022-08-26T21:06:24.579Z,73.63
2022-08-26T21:08:51.290Z,73.39
2022-08-26T21:11:18.288Z,73.54
2022-08-26T21:14:03.885Z,73.75
2022-08-26T21:31:29.835Z,66.23
2022-08-26T21:33:56.734Z,65.42
2022-08-26T21:36:23.863Z,65.87
2022-08-26T21:38:50.448Z,66.18
2022-08-26T21:41:22.003Z,65.37
2022-08-26T21:43:50.100Z,66.62
2022-08-26T21:46:20.219Z,68.53
2022-08-26T21:48:50.939Z,67.78
2022-08-26T21:51:20.263Z,66.55
2022-08-26T21:53:47.624Z,66.86
2022-08-26T21:56:15.840Z,67.28
2022-08-26T21:58:42.967Z,68.54
2022-08-26T22:01:16.835Z,68.37
2022-08-26T22:03:46.979Z,68.12
2022-08-26T22:06:19.494Z,70.38
2022-08-26T22:08:46.182Z,70.63
2022-08-26T22:11:14.271Z,69.90
2022-08-26T22:13:42.362Z,70.33
2022-08-26T22:16:10.063Z,72.05
2022-08-26T22:18:38.199Z,71.48
2022-08-26T22:21:08.225Z,71.04
2022-08-26T22:23:36.370Z,70.12
2022-08-26T22:26:05.140Z,69.97
2022-08-26T22:28:31.837Z,71.48
2022-08-26T22:30:58.597Z,72.38
2022-08-26T22:33:25.865Z,72.42
2022-08-26T22:35:52.971Z,73.78
2022-08-26T22:38:20.201Z,74.89
2022-08-26T22:40:50.359Z,74.89
2022-08-26T22:43:19.081Z,77.97
2022-08-26T22:45:48.507Z,77.37
2022-08-26T22:48:18.662Z,77.38
2022-08-26T22:50:47.138Z,76.98
2022-08-26T22:53:15.812Z,77.75
2022-08-26T22:55:43.494Z,78.00
2022-08-26T22:58:11.685Z,79.03
2022-08-26T23:00:40.278Z,79.57
2022-08-26T23:03:07.757Z,77.54
2022-08-26T23:05:34.750Z,77.63
2022-08-26T23:08:01.463Z,79.05
2022-08-26T23:10:28.770Z,79.24
2022-08-26T23:12:55.394Z,79.68
2022-08-26T23:15:22.321Z,81.46
2022-08-26T23:17:55.870Z,82.43
2022-08-26T23:20:26.302Z,80.31
2022-08-26T23:22:53.520Z,80.25
2022-08-26T23:25:20.587Z,79.71
2022-08-26T23:27:47.237Z,80.89
2022-08-26T23:30:18.662Z,81.05
2022-08-26T23:32:45.607Z,81.60
2022-08-26T23:35:14.210Z,82.61
2022-08-26T23:37:44.255Z,82.70
2022-08-26T23:40:16.303Z,82.20
2022-08-26T23:42:42.972Z,82.80
2022-08-26T23:45:12.906Z,83.33
2022-08-26T23:47:41.136Z,83.46
2022-08-26T23:50:08.697Z,84.27
2022-08-26T23:52:53.853Z,84.23
2022-08-26T23:55:20.615Z,84.63
2022-08-26T23:57:47.624Z,83.36
